sensor_id;sensor_type;location;lat;lon;timestamp;temperature;humidity
42913;DHT22;50720;54.324;18.558;2023-09-07T00:01:44;16.90;99.90
42913;DHT22;50720;54.324;18.558;2023-09-07T00:04:31;17.00;99.90
42913;DHT22;50720;54.324;18.558;2023-09-07T00:07:18;16.90;99.90
42913;DHT22;50720;54.324;18.558;2023-09-07T00:10:07;16.80;99.90
42913;DHT22;50720;54.324;18.558;2023-09-07T00:12:55;16.80;99.90
42913;DHT22;50720;54.324;18.558;2023-09-07T00:15:43;16.70;99.90
42913;DHT22;50720;54.324;18.558;2023-09-07T00:18:30;16.70;99.90
42913;DHT22;50720;54.324;18.558;2023-09-07T00:21:17;16.70;99.90
42913;DHT22;50720;54.324;18.558;2023-09-07T00:24:04;16.60;99.90
42913;DHT22;50720;54.324;18.558;2023-09-07T00:26:53;16.50;99.90
42913;DHT22;50720;54.324;18.558;2023-09-07T00:29:40;16.50;99.90
42913;DHT22;50720;54.324;18.558;2023-09-07T00:32:27;16.40;99.90
42913;DHT22;50720;54.324;18.558;2023-09-07T00:35:14;16.30;99.90
42913;DHT22;50720;54.324;18.558;2023-09-07T00:38:02;16.30;99.90
42913;DHT22;50720;54.324;18.558;2023-09-07T00:40:49;16.40;99.90
42913;DHT22;50720;54.324;18.558;2023-09-07T00:43:38;16.40;99.90
42913;DHT22;50720;54.324;18.558;2023-09-07T00:46:26;16.30;99.90
42913;DHT22;50720;54.324;18.558;2023-09-07T00:49:14;16.30;99.90
42913;DHT22;50720;54.324;18.558;2023-09-07T00:52:01;16.20;99.90
42913;DHT22;50720;54.324;18.558;2023-09-07T00:54:49;16.20;99.90
42913;DHT22;50720;54.324;18.558;2023-09-07T00:57:37;16.20;99.90
42913;DHT22;50720;54.324;18.558;2023-09-07T01:00:26;16.10;99.90
42913;DHT22;50720;54.324;18.558;2023-09-07T01:03:13;16.20;99.90
42913;DHT22;50720;54.324;18.558;2023-09-07T01:06:03;16.20;99.90
42913;DHT22;50720;54.324;18.558;2023-09-07T01:08:52;16.20;99.90
42913;DHT22;50720;54.324;18.558;2023-09-07T01:11:40;16.10;99.90
42913;DHT22;50720;54.324;18.558;2023-09-07T01:14:27;16.10;99.90
42913;DHT22;50720;54.324;18.558;2023-09-07T01:17:16;16.20;99.90
42913;DHT22;50720;54.324;18.558;2023-09-07T01:20:05;16.20;99.90
42913;DHT22;50720;54.324;18.558;2023-09-07T01:22:56;16.20;99.90
42913;DHT22;50720;54.324;18.558;2023-09-07T01:25:43;16.30;99.90
42913;DHT22;50720;54.324;18.558;2023-09-07T01:28:31;16.30;99.90
42913;DHT22;50720;54.324;18.558;2023-09-07T01:31:18;16.40;99.90
42913;DHT22;50720;54.324;18.558;2023-09-07T01:34:06;16.40;99.90
42913;DHT22;50720;54.324;18.558;2023-09-07T01:36:53;16.40;99.90
42913;DHT22;50720;54.324;18.558;2023-09-07T01:39:42;16.40;99.90
42913;DHT22;50720;54.324;18.558;2023-09-07T01:42:29;16.50;99.90
42913;DHT22;50720;54.324;18.558;2023-09-07T01:45:16;16.50;99.90
42913;DHT22;50720;54.324;18.558;2023-09-07T01:48:05;16.80;99.90
42913;DHT22;50720;54.324;18.558;2023-09-07T01:50:53;16.80;99.90
42913;DHT22;50720;54.324;18.558;2023-09-07T01:53:40;17.00;99.90
42913;DHT22;50720;54.324;18.558;2023-09-07T01:56:29;17.00;99.90
42913;DHT22;50720;54.324;18.558;2023-09-07T01:59:15;17.00;99.90
42913;DHT22;50720;54.324;18.558;2023-09-07T02:02:02;17.00;99.90
42913;DHT22;50720;54.324;18.558;2023-09-07T02:04:49;17.00;99.90
42913;DHT22;50720;54.324;18.558;2023-09-07T02:07:36;17.20;99.90
42913;DHT22;50720;54.324;18.558;2023-09-07T02:10:23;17.20;99.90
42913;DHT22;50720;54.324;18.558;2023-09-07T02:13:12;17.30;99.90
42913;DHT22;50720;54.324;18.558;2023-09-07T02:16:03;17.40;99.90
42913;DHT22;50720;54.324;18.558;2023-09-07T02:18:59;17.30;99.90
42913;DHT22;50720;54.324;18.558;2023-09-07T02:21:46;17.30;99.90
42913;DHT22;50720;54.324;18.558;2023-09-07T02:24:33;17.30;99.90
42913;DHT22;50720;54.324;18.558;2023-09-07T02:27:20;17.20;99.90
42913;DHT22;50720;54.324;18.558;2023-09-07T02:30:09;17.30;99.90
42913;DHT22;50720;54.324;18.558;2023-09-07T02:32:56;17.20;99.90
42913;DHT22;50720;54.324;18.558;2023-09-07T02:35:44;17.20;99.90
42913;DHT22;50720;54.324;18.558;2023-09-07T02:38:31;17.30;99.90
42913;DHT22;50720;54.324;18.558;2023-09-07T02:41:18;17.20;99.90
42913;DHT22;50720;54.324;18.558;2023-09-07T02:44:05;17.30;99.90
42913;DHT22;50720;54.324;18.558;2023-09-07T02:46:54;17.30;99.90
42913;DHT22;50720;54.324;18.558;2023-09-07T02:49:41;17.30;99.90
42913;DHT22;50720;54.324;18.558;2023-09-07T02:52:28;17.40;99.90
42913;DHT22;50720;54.324;18.558;2023-09-07T02:55:15;17.30;99.90
42913;DHT22;50720;54.324;18.558;2023-09-07T02:58:03;17.30;99.90
42913;DHT22;50720;54.324;18.558;2023-09-07T03:00:51;17.40;99.90
42913;DHT22;50720;54.324;18.558;2023-09-07T03:03:40;17.40;99.90
42913;DHT22;50720;54.324;18.558;2023-09-07T03:06:28;17.40;99.90
42913;DHT22;50720;54.324;18.558;2023-09-07T03:09:15;17.40;99.90
42913;DHT22;50720;54.324;18.558;2023-09-07T03:12:02;17.40;99.90
42913;DHT22;50720;54.324;18.558;2023-09-07T03:14:50;17.50;99.90
42913;DHT22;50720;54.324;18.558;2023-09-07T03:17:37;17.50;99.90
42913;DHT22;50720;54.324;18.558;2023-09-07T03:20:26;17.40;99.90
42913;DHT22;50720;54.324;18.558;2023-09-07T03:23:13;17.50;99.90
42913;DHT22;50720;54.324;18.558;2023-09-07T03:26:01;17.50;99.90
42913;DHT22;50720;54.324;18.558;2023-09-07T03:28:48;17.50;99.90
42913;DHT22;50720;54.324;18.558;2023-09-07T03:31:35;17.50;99.90
42913;DHT22;50720;54.324;18.558;2023-09-07T03:34:22;17.60;99.90
42913;DHT22;50720;54.324;18.558;2023-09-07T03:37:11;17.60;99.90
42913;DHT22;50720;54.324;18.558;2023-09-07T03:39:58;17.60;99.90
42913;DHT22;50720;54.324;18.558;2023-09-07T03:42:45;17.60;99.90
42913;DHT22;50720;54.324;18.558;2023-09-07T03:45:32;17.60;99.90
42913;DHT22;50720;54.324;18.558;2023-09-07T03:48:19;17.60;99.90
42913;DHT22;50720;54.324;18.558;2023-09-07T03:51:06;17.70;99.90
42913;DHT22;50720;54.324;18.558;2023-09-07T03:53:55;17.60;99.90
42913;DHT22;50720;54.324;18.558;2023-09-07T03:56:41;17.70;99.90
42913;DHT22;50720;54.324;18.558;2023-09-07T03:59:29;17.70;99.90
42913;DHT22;50720;54.324;18.558;2023-09-07T04:02:16;17.70;99.90
42913;DHT22;50720;54.324;18.558;2023-09-07T04:05:05;17.70;99.90
42913;DHT22;50720;54.324;18.558;2023-09-07T04:07:52;17.70;99.90
42913;DHT22;50720;54.324;18.558;2023-09-07T04:10:41;17.70;99.90
42913;DHT22;50720;54.324;18.558;2023-09-07T04:13:28;17.70;99.90
42913;DHT22;50720;54.324;18.558;2023-09-07T04:16:15;17.70;99.90
42913;DHT22;50720;54.324;18.558;2023-09-07T04:19:02;17.70;99.90
42913;DHT22;50720;54.324;18.558;2023-09-07T04:21:49;17.70;99.90
42913;DHT22;50720;54.324;18.558;2023-09-07T04:24:36;17.60;99.90
42913;DHT22;50720;54.324;18.558;2023-09-07T04:27:25;17.60;99.90
42913;DHT22;50720;54.324;18.558;2023-09-07T04:30:12;17.60;99.90
42913;DHT22;50720;54.324;18.558;2023-09-07T04:33:00;17.60;99.90
42913;DHT22;50720;54.324;18.558;2023-09-07T04:35:46;17.60;99.90
42913;DHT22;50720;54.324;18.558;2023-09-07T04:38:33;17.60;99.90
42913;DHT22;50720;54.324;18.558;2023-09-07T04:41:21;17.60;99.90
42913;DHT22;50720;54.324;18.558;2023-09-07T04:44:09;17.50;99.90
42913;DHT22;50720;54.324;18.558;2023-09-07T04:46:56;17.50;99.90
42913;DHT22;50720;54.324;18.558;2023-09-07T04:49:48;17.50;99.90
42913;DHT22;50720;54.324;18.558;2023-09-07T04:52:36;17.50;99.90
42913;DHT22;50720;54.324;18.558;2023-09-07T04:55:23;17.50;99.90
42913;DHT22;50720;54.324;18.558;2023-09-07T04:58:10;17.50;99.90
42913;DHT22;50720;54.324;18.558;2023-09-07T05:01:04;17.50;99.90
42913;DHT22;50720;54.324;18.558;2023-09-07T05:03:51;17.40;99.90
42913;DHT22;50720;54.324;18.558;2023-09-07T05:06:40;17.40;99.90
42913;DHT22;50720;54.324;18.558;2023-09-07T05:09:28;17.40;99.90
42913;DHT22;50720;54.324;18.558;2023-09-07T05:12:16;17.40;99.90
42913;DHT22;50720;54.324;18.558;2023-09-07T05:15:04;17.30;99.90
42913;DHT22;50720;54.324;18.558;2023-09-07T05:17:54;17.40;99.90
42913;DHT22;50720;54.324;18.558;2023-09-07T05:20:41;17.30;99.90
42913;DHT22;50720;54.324;18.558;2023-09-07T05:23:30;17.40;99.90
42913;DHT22;50720;54.324;18.558;2023-09-07T05:26:21;17.40;99.90
42913;DHT22;50720;54.324;18.558;2023-09-07T05:29:10;17.30;99.90
42913;DHT22;50720;54.324;18.558;2023-09-07T05:31:57;17.40;99.90
42913;DHT22;50720;54.324;18.558;2023-09-07T05:34:46;17.30;99.90
42913;DHT22;50720;54.324;18.558;2023-09-07T05:37:33;17.40;99.90
42913;DHT22;50720;54.324;18.558;2023-09-07T05:40:20;17.40;99.90
42913;DHT22;50720;54.324;18.558;2023-09-07T05:43:08;17.30;99.90
42913;DHT22;50720;54.324;18.558;2023-09-07T05:45:55;17.40;99.90
42913;DHT22;50720;54.324;18.558;2023-09-07T05:48:42;17.40;99.90
42913;DHT22;50720;54.324;18.558;2023-09-07T05:51:31;17.40;99.90
42913;DHT22;50720;54.324;18.558;2023-09-07T05:54:18;17.40;99.90
42913;DHT22;50720;54.324;18.558;2023-09-07T05:57:05;17.40;99.90
42913;DHT22;50720;54.324;18.558;2023-09-07T05:59:52;17.40;99.90
42913;DHT22;50720;54.324;18.558;2023-09-07T06:02:39;17.40;99.90
42913;DHT22;50720;54.324;18.558;2023-09-07T06:05:27;17.40;99.90
42913;DHT22;50720;54.324;18.558;2023-09-07T06:08:15;17.40;99.90
42913;DHT22;50720;54.324;18.558;2023-09-07T06:11:02;17.50;99.90
42913;DHT22;50720;54.324;18.558;2023-09-07T06:13:50;17.50;99.90
42913;DHT22;50720;54.324;18.558;2023-09-07T06:16:37;17.60;99.90
42913;DHT22;50720;54.324;18.558;2023-09-07T06:19:24;17.60;99.90
42913;DHT22;50720;54.324;18.558;2023-09-07T06:22:11;17.60;99.90
42913;DHT22;50720;54.324;18.558;2023-09-07T06:25:00;17.60;99.90
42913;DHT22;50720;54.324;18.558;2023-09-07T06:27:47;17.70;99.90
42913;DHT22;50720;54.324;18.558;2023-09-07T06:30:34;17.80;99.90
42913;DHT22;50720;54.324;18.558;2023-09-07T06:33:21;17.80;99.90
42913;DHT22;50720;54.324;18.558;2023-09-07T06:36:08;18.10;99.90
42913;DHT22;50720;54.324;18.558;2023-09-07T06:38:56;18.20;99.90
42913;DHT22;50720;54.324;18.558;2023-09-07T06:41:46;18.20;99.90
42913;DHT22;50720;54.324;18.558;2023-09-07T06:44:34;18.50;99.90
42913;DHT22;50720;54.324;18.558;2023-09-07T06:47:21;18.60;99.90
42913;DHT22;50720;54.324;18.558;2023-09-07T06:50:08;18.60;99.90
42913;DHT22;50720;54.324;18.558;2023-09-07T06:52:56;18.90;99.90
42913;DHT22;50720;54.324;18.558;2023-09-07T06:55:43;19.00;99.90
42913;DHT22;50720;54.324;18.558;2023-09-07T06:58:31;19.00;99.90
42913;DHT22;50720;54.324;18.558;2023-09-07T07:01:19;19.10;99.90
42913;DHT22;50720;54.324;18.558;2023-09-07T07:04:06;19.20;99.90
42913;DHT22;50720;54.324;18.558;2023-09-07T07:06:54;19.10;99.90
42913;DHT22;50720;54.324;18.558;2023-09-07T07:09:41;19.10;99.90
42913;DHT22;50720;54.324;18.558;2023-09-07T07:12:28;19.10;99.90
42913;DHT22;50720;54.324;18.558;2023-09-07T07:15:17;18.80;99.90
42913;DHT22;50720;54.324;18.558;2023-09-07T07:18:04;18.80;99.90
42913;DHT22;50720;54.324;18.558;2023-09-07T07:20:54;19.00;99.90
42913;DHT22;50720;54.324;18.558;2023-09-07T07:23:41;19.10;99.90
42913;DHT22;50720;54.324;18.558;2023-09-07T07:26:28;19.20;99.90
42913;DHT22;50720;54.324;18.558;2023-09-07T07:29:15;19.50;99.90
42913;DHT22;50720;54.324;18.558;2023-09-07T07:32:04;19.70;99.90
42913;DHT22;50720;54.324;18.558;2023-09-07T07:34:51;19.90;99.90
42913;DHT22;50720;54.324;18.558;2023-09-07T07:37:38;19.70;99.90
42913;DHT22;50720;54.324;18.558;2023-09-07T07:40:25;19.80;99.90
42913;DHT22;50720;54.324;18.558;2023-09-07T07:43:12;19.60;99.90
42913;DHT22;50720;54.324;18.558;2023-09-07T07:45:59;19.60;99.90
42913;DHT22;50720;54.324;18.558;2023-09-07T07:48:47;19.50;99.90
42913;DHT22;50720;54.324;18.558;2023-09-07T07:51:34;19.50;99.90
42913;DHT22;50720;54.324;18.558;2023-09-07T07:54:21;19.60;99.90
42913;DHT22;50720;54.324;18.558;2023-09-07T07:57:09;19.70;99.90
42913;DHT22;50720;54.324;18.558;2023-09-07T07:59:57;19.70;99.90
42913;DHT22;50720;54.324;18.558;2023-09-07T08:02:44;19.70;99.90
42913;DHT22;50720;54.324;18.558;2023-09-07T08:05:33;19.70;99.90
42913;DHT22;50720;54.324;18.558;2023-09-07T08:08:21;19.80;99.90
42913;DHT22;50720;54.324;18.558;2023-09-07T08:11:09;19.80;99.90
42913;DHT22;50720;54.324;18.558;2023-09-07T08:13:56;19.90;99.90
42913;DHT22;50720;54.324;18.558;2023-09-07T08:16:43;19.90;99.90
42913;DHT22;50720;54.324;18.558;2023-09-07T08:19:30;19.90;99.90
42913;DHT22;50720;54.324;18.558;2023-09-07T08:22:19;19.90;99.90
42913;DHT22;50720;54.324;18.558;2023-09-07T08:25:06;20.00;99.90
42913;DHT22;50720;54.324;18.558;2023-09-07T08:27:54;20.00;99.90
42913;DHT22;50720;54.324;18.558;2023-09-07T08:30:43;20.20;99.90
42913;DHT22;50720;54.324;18.558;2023-09-07T08:33:31;20.30;99.90
42913;DHT22;50720;54.324;18.558;2023-09-07T08:36:20;20.50;99.90
42913;DHT22;50720;54.324;18.558;2023-09-07T08:39:10;20.60;99.90
42913;DHT22;50720;54.324;18.558;2023-09-07T08:41:57;20.70;99.90
42913;DHT22;50720;54.324;18.558;2023-09-07T08:44:47;20.80;99.90
42913;DHT22;50720;54.324;18.558;2023-09-07T08:47:36;20.80;99.90
42913;DHT22;50720;54.324;18.558;2023-09-07T08:50:24;20.80;99.90
42913;DHT22;50720;54.324;18.558;2023-09-07T08:53:11;20.80;99.90
42913;DHT22;50720;54.324;18.558;2023-09-07T08:56:01;20.80;99.90
42913;DHT22;50720;54.324;18.558;2023-09-07T08:58:48;20.90;99.90
42913;DHT22;50720;54.324;18.558;2023-09-07T09:01:36;21.00;99.90
42913;DHT22;50720;54.324;18.558;2023-09-07T09:04:23;21.10;99.90
42913;DHT22;50720;54.324;18.558;2023-09-07T09:07:12;21.00;99.90
42913;DHT22;50720;54.324;18.558;2023-09-07T09:10:05;21.10;99.90
42913;DHT22;50720;54.324;18.558;2023-09-07T09:12:54;21.20;99.90
42913;DHT22;50720;54.324;18.558;2023-09-07T09:15:40;21.30;99.90
42913;DHT22;50720;54.324;18.558;2023-09-07T09:18:28;21.30;99.90
42913;DHT22;50720;54.324;18.558;2023-09-07T09:21:15;21.40;99.90
42913;DHT22;50720;54.324;18.558;2023-09-07T09:24:03;21.50;99.90
42913;DHT22;50720;54.324;18.558;2023-09-07T09:26:55;21.60;99.90
42913;DHT22;50720;54.324;18.558;2023-09-07T09:29:44;21.70;99.90
42913;DHT22;50720;54.324;18.558;2023-09-07T09:32:31;21.80;99.90
42913;DHT22;50720;54.324;18.558;2023-09-07T09:35:19;21.90;99.90
42913;DHT22;50720;54.324;18.558;2023-09-07T09:38:08;21.90;99.90
42913;DHT22;50720;54.324;18.558;2023-09-07T09:40:55;21.90;99.90
42913;DHT22;50720;54.324;18.558;2023-09-07T09:43:42;22.00;99.90
42913;DHT22;50720;54.324;18.558;2023-09-07T09:46:34;22.10;99.90
42913;DHT22;50720;54.324;18.558;2023-09-07T09:49:22;22.20;99.90
42913;DHT22;50720;54.324;18.558;2023-09-07T09:52:12;22.20;1.00
42913;DHT22;50720;54.324;18.558;2023-09-07T09:55:00;22.30;1.00
42913;DHT22;50720;54.324;18.558;2023-09-07T09:57:47;22.30;1.00
42913;DHT22;50720;54.324;18.558;2023-09-07T10:00:35;22.30;1.00
42913;DHT22;50720;54.324;18.558;2023-09-07T10:03:26;22.30;1.00
42913;DHT22;50720;54.324;18.558;2023-09-07T10:06:19;22.30;1.00
42913;DHT22;50720;54.324;18.558;2023-09-07T10:09:08;22.50;1.00
42913;DHT22;50720;54.324;18.558;2023-09-07T10:12:02;22.70;1.00
42913;DHT22;50720;54.324;18.558;2023-09-07T10:14:53;23.00;1.00
42913;DHT22;50720;54.324;18.558;2023-09-07T10:17:40;23.20;99.90
42913;DHT22;50720;54.324;18.558;2023-09-07T10:20:30;23.10;99.90
42913;DHT22;50720;54.324;18.558;2023-09-07T10:23:21;23.30;99.90
42913;DHT22;50720;54.324;18.558;2023-09-07T10:26:12;23.20;99.90
42913;DHT22;50720;54.324;18.558;2023-09-07T10:28:59;23.30;99.90
42913;DHT22;50720;54.324;18.558;2023-09-07T10:31:50;23.50;99.90
42913;DHT22;50720;54.324;18.558;2023-09-07T10:34:37;23.50;99.90
42913;DHT22;50720;54.324;18.558;2023-09-07T10:37:29;23.50;99.90
42913;DHT22;50720;54.324;18.558;2023-09-07T10:40:20;23.50;99.90
42913;DHT22;50720;54.324;18.558;2023-09-07T10:43:08;23.70;99.90
42913;DHT22;50720;54.324;18.558;2023-09-07T10:45:55;24.10;99.90
42913;DHT22;50720;54.324;18.558;2023-09-07T10:48:43;24.20;99.90
42913;DHT22;50720;54.324;18.558;2023-09-07T10:51:29;24.20;99.90
42913;DHT22;50720;54.324;18.558;2023-09-07T10:54:21;25.00;99.90
42913;DHT22;50720;54.324;18.558;2023-09-07T10:57:09;26.10;99.90
42913;DHT22;50720;54.324;18.558;2023-09-07T10:59:57;26.20;99.90
42913;DHT22;50720;54.324;18.558;2023-09-07T11:02:44;26.40;99.90
42913;DHT22;50720;54.324;18.558;2023-09-07T11:05:31;26.40;99.90
42913;DHT22;50720;54.324;18.558;2023-09-07T11:08:20;27.10;99.90
42913;DHT22;50720;54.324;18.558;2023-09-07T11:11:09;27.10;99.90
42913;DHT22;50720;54.324;18.558;2023-09-07T11:13:57;27.00;99.90
42913;DHT22;50720;54.324;18.558;2023-09-07T11:16:44;27.20;99.90
42913;DHT22;50720;54.324;18.558;2023-09-07T11:19:32;27.70;99.90
42913;DHT22;50720;54.324;18.558;2023-09-07T11:22:21;28.00;99.90
42913;DHT22;50720;54.324;18.558;2023-09-07T11:25:09;28.50;99.90
42913;DHT22;50720;54.324;18.558;2023-09-07T11:27:58;28.50;99.90
42913;DHT22;50720;54.324;18.558;2023-09-07T11:30:51;28.70;99.90
42913;DHT22;50720;54.324;18.558;2023-09-07T11:33:38;28.40;99.90
42913;DHT22;50720;54.324;18.558;2023-09-07T11:36:27;28.40;99.90
42913;DHT22;50720;54.324;18.558;2023-09-07T11:39:15;28.60;99.90
42913;DHT22;50720;54.324;18.558;2023-09-07T11:42:01;28.40;99.90
42913;DHT22;50720;54.324;18.558;2023-09-07T11:44:50;28.70;99.90
42913;DHT22;50720;54.324;18.558;2023-09-07T11:47:37;28.20;99.90
42913;DHT22;50720;54.324;18.558;2023-09-07T11:50:24;28.20;95.30
42913;DHT22;50720;54.324;18.558;2023-09-07T11:53:11;28.30;79.30
42913;DHT22;50720;54.324;18.558;2023-09-07T11:55:59;28.10;75.10
42913;DHT22;50720;54.324;18.558;2023-09-07T11:58:46;28.70;52.50
42913;DHT22;50720;54.324;18.558;2023-09-07T12:01:35;28.80;99.90
42913;DHT22;50720;54.324;18.558;2023-09-07T12:04:23;28.70;99.90
42913;DHT22;50720;54.324;18.558;2023-09-07T12:07:11;28.40;99.90
42913;DHT22;50720;54.324;18.558;2023-09-07T12:09:57;28.50;99.90
42913;DHT22;50720;54.324;18.558;2023-09-07T12:12:44;28.30;96.40
42913;DHT22;50720;54.324;18.558;2023-09-07T12:15:31;27.90;70.30
42913;DHT22;50720;54.324;18.558;2023-09-07T12:18:20;27.90;82.60
42913;DHT22;50720;54.324;18.558;2023-09-07T12:21:08;28.00;91.50
42913;DHT22;50720;54.324;18.558;2023-09-07T12:23:56;28.10;96.50
42913;DHT22;50720;54.324;18.558;2023-09-07T12:26:42;28.30;27.80
42913;DHT22;50720;54.324;18.558;2023-09-07T12:29:30;28.50;2.70
42913;DHT22;50720;54.324;18.558;2023-09-07T12:32:16;28.70;84.20
42913;DHT22;50720;54.324;18.558;2023-09-07T12:35:06;28.90;21.90
42913;DHT22;50720;54.324;18.558;2023-09-07T12:37:53;29.20;1.00
42913;DHT22;50720;54.324;18.558;2023-09-07T12:40:41;29.20;1.00
42913;DHT22;50720;54.324;18.558;2023-09-07T12:43:27;29.20;1.00
42913;DHT22;50720;54.324;18.558;2023-09-07T12:46:15;29.30;1.00
42913;DHT22;50720;54.324;18.558;2023-09-07T12:49:02;29.50;1.00
42913;DHT22;50720;54.324;18.558;2023-09-07T12:51:50;29.60;1.00
42913;DHT22;50720;54.324;18.558;2023-09-07T12:54:37;29.80;1.00
42913;DHT22;50720;54.324;18.558;2023-09-07T12:57:24;29.80;1.00
42913;DHT22;50720;54.324;18.558;2023-09-07T13:00:12;29.70;1.00
42913;DHT22;50720;54.324;18.558;2023-09-07T13:02:59;30.00;1.00
42913;DHT22;50720;54.324;18.558;2023-09-07T13:05:48;29.90;99.90
42913;DHT22;50720;54.324;18.558;2023-09-07T13:08:36;29.60;99.90
42913;DHT22;50720;54.324;18.558;2023-09-07T13:11:23;29.20;99.90
42913;DHT22;50720;54.324;18.558;2023-09-07T13:14:10;29.20;99.90
42913;DHT22;50720;54.324;18.558;2023-09-07T13:16:57;29.40;99.90
42913;DHT22;50720;54.324;18.558;2023-09-07T13:19:45;29.40;99.90
42913;DHT22;50720;54.324;18.558;2023-09-07T13:22:33;29.60;99.90
42913;DHT22;50720;54.324;18.558;2023-09-07T13:25:22;29.60;99.90
42913;DHT22;50720;54.324;18.558;2023-09-07T13:28:09;29.60;99.90
42913;DHT22;50720;54.324;18.558;2023-09-07T13:30:56;29.60;99.90
42913;DHT22;50720;54.324;18.558;2023-09-07T13:33:43;29.50;99.90
42913;DHT22;50720;54.324;18.558;2023-09-07T13:36:30;29.30;99.90
42913;DHT22;50720;54.324;18.558;2023-09-07T13:39:17;29.30;99.90
42913;DHT22;50720;54.324;18.558;2023-09-07T13:42:06;29.10;99.90
42913;DHT22;50720;54.324;18.558;2023-09-07T13:44:53;29.20;99.90
42913;DHT22;50720;54.324;18.558;2023-09-07T13:47:41;29.60;99.90
42913;DHT22;50720;54.324;18.558;2023-09-07T13:50:28;29.40;99.90
42913;DHT22;50720;54.324;18.558;2023-09-07T13:53:15;29.50;99.90
42913;DHT22;50720;54.324;18.558;2023-09-07T13:56:03;29.50;99.90
42913;DHT22;50720;54.324;18.558;2023-09-07T13:58:51;29.50;99.90
42913;DHT22;50720;54.324;18.558;2023-09-07T14:01:38;29.90;99.90
42913;DHT22;50720;54.324;18.558;2023-09-07T14:04:26;30.00;99.90
42913;DHT22;50720;54.324;18.558;2023-09-07T14:07:13;29.90;99.90
42913;DHT22;50720;54.324;18.558;2023-09-07T14:10:00;29.60;99.90
42913;DHT22;50720;54.324;18.558;2023-09-07T14:12:47;29.50;99.90
42913;DHT22;50720;54.324;18.558;2023-09-07T14:15:36;29.70;60.10
42913;DHT22;50720;54.324;18.558;2023-09-07T14:18:23;29.40;63.40
42913;DHT22;50720;54.324;18.558;2023-09-07T14:21:10;29.30;42.20
42913;DHT22;50720;54.324;18.558;2023-09-07T14:23:56;29.30;53.00
42913;DHT22;50720;54.324;18.558;2023-09-07T14:26:44;29.20;62.00
42913;DHT22;50720;54.324;18.558;2023-09-07T14:29:30;29.20;53.70
42913;DHT22;50720;54.324;18.558;2023-09-07T14:32:20;29.80;20.00
42913;DHT22;50720;54.324;18.558;2023-09-07T14:35:07;30.10;1.00
42913;DHT22;50720;54.324;18.558;2023-09-07T14:37:54;30.10;1.00
42913;DHT22;50720;54.324;18.558;2023-09-07T14:40:41;29.80;1.00
42913;DHT22;50720;54.324;18.558;2023-09-07T14:43:29;30.00;1.00
42913;DHT22;50720;54.324;18.558;2023-09-07T14:46:16;29.90;1.00
42913;DHT22;50720;54.324;18.558;2023-09-07T14:49:06;30.20;1.00
42913;DHT22;50720;54.324;18.558;2023-09-07T14:51:53;29.80;1.00
42913;DHT22;50720;54.324;18.558;2023-09-07T14:54:40;29.40;1.00
42913;DHT22;50720;54.324;18.558;2023-09-07T14:57:28;29.60;1.00
42913;DHT22;50720;54.324;18.558;2023-09-07T15:00:15;29.30;99.90
42913;DHT22;50720;54.324;18.558;2023-09-07T15:03:03;29.40;99.90
42913;DHT22;50720;54.324;18.558;2023-09-07T15:05:52;29.30;99.90
42913;DHT22;50720;54.324;18.558;2023-09-07T15:08:39;29.30;99.90
42913;DHT22;50720;54.324;18.558;2023-09-07T15:11:26;29.20;1.00
42913;DHT22;50720;54.324;18.558;2023-09-07T15:14:13;28.80;99.90
42913;DHT22;50720;54.324;18.558;2023-09-07T15:17:00;28.60;99.90
42913;DHT22;50720;54.324;18.558;2023-09-07T15:19:47;28.60;1.00
42913;DHT22;50720;54.324;18.558;2023-09-07T15:22:36;28.40;1.00
42913;DHT22;50720;54.324;18.558;2023-09-07T15:25:23;28.40;1.00
42913;DHT22;50720;54.324;18.558;2023-09-07T15:28:11;28.20;1.00
42913;DHT22;50720;54.324;18.558;2023-09-07T15:30:58;28.00;1.00
42913;DHT22;50720;54.324;18.558;2023-09-07T15:33:45;27.80;1.00
42913;DHT22;50720;54.324;18.558;2023-09-07T15:36:32;27.80;1.00
42913;DHT22;50720;54.324;18.558;2023-09-07T15:39:22;27.60;1.00
42913;DHT22;50720;54.324;18.558;2023-09-07T15:42:09;27.30;1.00
42913;DHT22;50720;54.324;18.558;2023-09-07T15:44:56;27.30;1.00
42913;DHT22;50720;54.324;18.558;2023-09-07T15:47:43;26.50;1.00
42913;DHT22;50720;54.324;18.558;2023-09-07T15:50:30;26.40;1.00
42913;DHT22;50720;54.324;18.558;2023-09-07T15:53:18;26.30;1.00
42913;DHT22;50720;54.324;18.558;2023-09-07T15:56:07;26.20;1.00
42913;DHT22;50720;54.324;18.558;2023-09-07T15:58:54;26.00;1.00
42913;DHT22;50720;54.324;18.558;2023-09-07T16:01:41;25.50;63.50
42913;DHT22;50720;54.324;18.558;2023-09-07T16:04:28;25.30;94.90
42913;DHT22;50720;54.324;18.558;2023-09-07T16:07:15;25.30;94.90
42913;DHT22;50720;54.324;18.558;2023-09-07T16:10:02;25.10;99.90
42913;DHT22;50720;54.324;18.558;2023-09-07T16:12:51;24.30;99.90
42913;DHT22;50720;54.324;18.558;2023-09-07T16:15:37;24.30;99.90
42913;DHT22;50720;54.324;18.558;2023-09-07T16:18:25;23.70;99.90
42913;DHT22;50720;54.324;18.558;2023-09-07T16:21:12;23.70;99.90
42913;DHT22;50720;54.324;18.558;2023-09-07T16:24:01;23.30;1.00
42913;DHT22;50720;54.324;18.558;2023-09-07T16:26:48;23.10;72.90
42913;DHT22;50720;54.324;18.558;2023-09-07T16:29:37;22.50;99.90
42913;DHT22;50720;54.324;18.558;2023-09-07T16:32:28;22.40;99.90
42913;DHT22;50720;54.324;18.558;2023-09-07T16:35:15;22.30;99.90
42913;DHT22;50720;54.324;18.558;2023-09-07T16:38:02;22.30;99.90
42913;DHT22;50720;54.324;18.558;2023-09-07T16:40:50;22.20;99.90
42913;DHT22;50720;54.324;18.558;2023-09-07T16:43:37;22.10;99.90
42913;DHT22;50720;54.324;18.558;2023-09-07T16:46:25;22.00;99.90
42913;DHT22;50720;54.324;18.558;2023-09-07T16:49:12;21.90;99.90
42913;DHT22;50720;54.324;18.558;2023-09-07T16:51:59;21.70;99.90
42913;DHT22;50720;54.324;18.558;2023-09-07T16:54:46;21.60;99.90
42913;DHT22;50720;54.324;18.558;2023-09-07T16:57:33;21.50;99.90
42913;DHT22;50720;54.324;18.558;2023-09-07T17:00:21;21.40;1.00
42913;DHT22;50720;54.324;18.558;2023-09-07T17:03:09;21.40;1.00
42913;DHT22;50720;54.324;18.558;2023-09-07T17:05:56;21.10;1.00
42913;DHT22;50720;54.324;18.558;2023-09-07T17:08:43;21.00;1.00
42913;DHT22;50720;54.324;18.558;2023-09-07T17:11:30;20.90;1.00
42913;DHT22;50720;54.324;18.558;2023-09-07T17:14:18;20.90;1.00
42913;DHT22;50720;54.324;18.558;2023-09-07T17:17:05;20.90;1.00
42913;DHT22;50720;54.324;18.558;2023-09-07T17:19:54;20.60;1.00
42913;DHT22;50720;54.324;18.558;2023-09-07T17:22:41;20.50;1.00
42913;DHT22;50720;54.324;18.558;2023-09-07T17:25:32;20.50;1.00